Terminal Aerodrome Forecast
Issued by NWS

Home | Current Version | Previous Version | Text Only | Print | Product List | Glossary On
Versions: 1 2 3 4 5 6 7 8 9 10 11 12
000
FTUS45 KGGW 192320
TAFGDV
TAF
KGDV 192320Z 2000/2024 33014G23KT P6SM SCT250
     FM200200 35011KT P6SM FEW250
     FM201400 06005KT P6SM BKN110=

USA.gov is the U.S. government's official web portal to all federal, state and local government web resources and services.